sensor_id;sensor_type;location;lat;lon;timestamp;P1;durP1;ratioP1;P2;durP2;ratioP2
43650;SDS011;29247;50.944;5.382;2022-07-23T00:01:02;6.07;;;4.25;;
43650;SDS011;29247;50.944;5.382;2022-07-23T00:03:28;5.45;;;3.53;;
43650;SDS011;29247;50.944;5.382;2022-07-23T00:05:57;6.15;;;3.63;;
43650;SDS011;29247;50.944;5.382;2022-07-23T00:08:27;5.78;;;3.78;;
43650;SDS011;29247;50.944;5.382;2022-07-23T00:10:52;6.13;;;4.13;;
43650;SDS011;29247;50.944;5.382;2022-07-23T00:13:20;5.45;;;3.25;;
43650;SDS011;29247;50.944;5.382;2022-07-23T00:15:46;5.57;;;3.70;;
43650;SDS011;29247;50.944;5.382;2022-07-23T00:18:12;6.38;;;3.90;;
43650;SDS011;29247;50.944;5.382;2022-07-23T00:20:37;5.80;;;3.70;;
43650;SDS011;29247;50.944;5.382;2022-07-23T00:23:08;8.30;;;4.40;;
43650;SDS011;29247;50.944;5.382;2022-07-23T00:25:34;5.93;;;4.40;;
43650;SDS011;29247;50.944;5.382;2022-07-23T00:28:00;5.13;;;3.53;;
43650;SDS011;29247;50.944;5.382;2022-07-23T00:30:27;6.97;;;4.20;;
43650;SDS011;29247;50.944;5.382;2022-07-23T00:33:00;8.13;;;4.78;;
43650;SDS011;29247;50.944;5.382;2022-07-23T00:35:28;7.63;;;4.10;;
43650;SDS011;29247;50.944;5.382;2022-07-23T00:37:56;8.20;;;4.68;;
43650;SDS011;29247;50.944;5.382;2022-07-23T00:40:26;5.53;;;3.90;;
43650;SDS011;29247;50.944;5.382;2022-07-23T00:42:53;7.97;;;4.10;;
43650;SDS011;29247;50.944;5.382;2022-07-23T00:45:19;5.20;;;4.32;;
43650;SDS011;29247;50.944;5.382;2022-07-23T00:47:45;7.70;;;4.53;;
43650;SDS011;29247;50.944;5.382;2022-07-23T00:50:13;7.60;;;4.72;;
43650;SDS011;29247;50.944;5.382;2022-07-23T00:52:39;5.55;;;3.90;;
43650;SDS011;29247;50.944;5.382;2022-07-23T00:55:10;6.32;;;3.85;;
43650;SDS011;29247;50.944;5.382;2022-07-23T00:57:37;5.78;;;4.20;;
43650;SDS011;29247;50.944;5.382;2022-07-23T01:00:07;6.47;;;4.70;;
43650;SDS011;29247;50.944;5.382;2022-07-23T01:02:35;6.63;;;4.30;;
43650;SDS011;29247;50.944;5.382;2022-07-23T01:05:04;6.97;;;4.18;;
43650;SDS011;29247;50.944;5.382;2022-07-23T01:07:31;4.97;;;3.92;;
43650;SDS011;29247;50.944;5.382;2022-07-23T01:09:58;5.72;;;4.88;;
43650;SDS011;29247;50.944;5.382;2022-07-23T01:12:27;8.23;;;4.82;;
43650;SDS011;29247;50.944;5.382;2022-07-23T01:14:55;5.85;;;3.97;;
43650;SDS011;29247;50.944;5.382;2022-07-23T01:17:22;6.70;;;5.15;;
43650;SDS011;29247;50.944;5.382;2022-07-23T01:19:48;6.93;;;4.40;;
43650;SDS011;29247;50.944;5.382;2022-07-23T01:22:17;5.88;;;4.25;;
43650;SDS011;29247;50.944;5.382;2022-07-23T01:24:46;6.78;;;3.83;;
43650;SDS011;29247;50.944;5.382;2022-07-23T01:27:12;5.05;;;3.97;;
43650;SDS011;29247;50.944;5.382;2022-07-23T01:29:40;5.20;;;3.90;;
43650;SDS011;29247;50.944;5.382;2022-07-23T01:32:06;8.30;;;3.90;;
43650;SDS011;29247;50.944;5.382;2022-07-23T01:34:34;6.75;;;4.03;;
43650;SDS011;29247;50.944;5.382;2022-07-23T01:37:02;5.45;;;4.00;;
43650;SDS011;29247;50.944;5.382;2022-07-23T01:39:27;7.43;;;4.25;;
43650;SDS011;29247;50.944;5.382;2022-07-23T01:41:55;4.20;;;3.00;;
43650;SDS011;29247;50.944;5.382;2022-07-23T01:44:21;5.88;;;5.05;;
43650;SDS011;29247;50.944;5.382;2022-07-23T01:46:47;5.55;;;4.20;;
43650;SDS011;29247;50.944;5.382;2022-07-23T01:49:15;5.75;;;3.83;;
43650;SDS011;29247;50.944;5.382;2022-07-23T01:51:40;5.22;;;4.25;;
43650;SDS011;29247;50.944;5.382;2022-07-23T01:54:24;4.40;;;3.63;;
43650;SDS011;29247;50.944;5.382;2022-07-23T01:56:57;5.55;;;3.80;;
43650;SDS011;29247;50.944;5.382;2022-07-23T01:59:23;5.95;;;4.47;;
43650;SDS011;29247;50.944;5.382;2022-07-23T02:01:51;6.60;;;4.22;;
43650;SDS011;29247;50.944;5.382;2022-07-23T02:04:20;5.38;;;4.20;;
43650;SDS011;29247;50.944;5.382;2022-07-23T02:06:47;6.25;;;3.72;;
43650;SDS011;29247;50.944;5.382;2022-07-23T02:09:13;7.05;;;4.03;;
43650;SDS011;29247;50.944;5.382;2022-07-23T02:11:39;6.72;;;4.32;;
43650;SDS011;29247;50.944;5.382;2022-07-23T02:14:05;7.75;;;4.80;;
43650;SDS011;29247;50.944;5.382;2022-07-23T02:16:31;5.65;;;4.28;;
43650;SDS011;29247;50.944;5.382;2022-07-23T02:18:57;4.95;;;3.75;;
43650;SDS011;29247;50.944;5.382;2022-07-23T02:21:23;4.57;;;3.65;;
43650;SDS011;29247;50.944;5.382;2022-07-23T02:23:51;6.65;;;3.70;;
43650;SDS011;29247;50.944;5.382;2022-07-23T02:26:17;6.25;;;4.40;;
43650;SDS011;29247;50.944;5.382;2022-07-23T02:28:47;5.50;;;4.25;;
43650;SDS011;29247;50.944;5.382;2022-07-23T02:31:15;5.38;;;3.30;;
43650;SDS011;29247;50.944;5.382;2022-07-23T02:33:43;4.40;;;3.22;;
43650;SDS011;29247;50.944;5.382;2022-07-23T02:36:12;5.38;;;3.47;;
43650;SDS011;29247;50.944;5.382;2022-07-23T02:38:37;4.47;;;3.85;;
43650;SDS011;29247;50.944;5.382;2022-07-23T02:41:03;3.95;;;2.70;;
43650;SDS011;29247;50.944;5.382;2022-07-23T02:43:29;3.22;;;2.90;;
43650;SDS011;29247;50.944;5.382;2022-07-23T02:45:56;7.15;;;3.65;;
43650;SDS011;29247;50.944;5.382;2022-07-23T02:48:22;4.20;;;3.38;;
43650;SDS011;29247;50.944;5.382;2022-07-23T02:50:48;5.18;;;3.40;;
43650;SDS011;29247;50.944;5.382;2022-07-23T02:53:13;4.30;;;3.25;;
43650;SDS011;29247;50.944;5.382;2022-07-23T02:55:39;5.20;;;3.47;;
43650;SDS011;29247;50.944;5.382;2022-07-23T03:00:35;5.32;;;3.38;;
43650;SDS011;29247;50.944;5.382;2022-07-23T03:03:00;6.43;;;4.05;;
43650;SDS011;29247;50.944;5.382;2022-07-23T03:05:26;7.57;;;4.22;;
43650;SDS011;29247;50.944;5.382;2022-07-23T03:07:52;6.68;;;4.10;;
43650;SDS011;29247;50.944;5.382;2022-07-23T03:10:17;4.25;;;3.50;;
43650;SDS011;29247;50.944;5.382;2022-07-23T03:12:45;4.30;;;3.30;;
43650;SDS011;29247;50.944;5.382;2022-07-23T03:15:13;4.95;;;3.58;;
43650;SDS011;29247;50.944;5.382;2022-07-23T03:17:39;3.85;;;3.38;;
43650;SDS011;29247;50.944;5.382;2022-07-23T03:20:06;4.70;;;3.53;;
43650;SDS011;29247;50.944;5.382;2022-07-23T03:22:33;5.57;;;3.92;;
43650;SDS011;29247;50.944;5.382;2022-07-23T03:24:58;6.82;;;4.10;;
43650;SDS011;29247;50.944;5.382;2022-07-23T03:27:29;6.10;;;4.00;;
43650;SDS011;29247;50.944;5.382;2022-07-23T03:30:00;6.43;;;3.92;;
43650;SDS011;29247;50.944;5.382;2022-07-23T03:32:26;5.13;;;3.75;;
43650;SDS011;29247;50.944;5.382;2022-07-23T03:34:55;4.78;;;3.13;;
43650;SDS011;29247;50.944;5.382;2022-07-23T03:37:22;6.22;;;3.45;;
43650;SDS011;29247;50.944;5.382;2022-07-23T03:39:48;5.47;;;3.50;;
43650;SDS011;29247;50.944;5.382;2022-07-23T03:42:14;6.47;;;4.40;;
43650;SDS011;29247;50.944;5.382;2022-07-23T03:44:42;4.75;;;4.25;;
43650;SDS011;29247;50.944;5.382;2022-07-23T03:47:10;4.75;;;3.75;;
43650;SDS011;29247;50.944;5.382;2022-07-23T03:49:36;5.43;;;3.42;;
43650;SDS011;29247;50.944;5.382;2022-07-23T03:52:02;5.20;;;3.83;;
43650;SDS011;29247;50.944;5.382;2022-07-23T03:54:30;4.63;;;3.15;;
43650;SDS011;29247;50.944;5.382;2022-07-23T03:56:59;7.55;;;3.83;;
43650;SDS011;29247;50.944;5.382;2022-07-23T03:59:24;5.90;;;3.60;;
43650;SDS011;29247;50.944;5.382;2022-07-23T04:01:51;6.63;;;3.85;;
43650;SDS011;29247;50.944;5.382;2022-07-23T04:04:17;4.30;;;3.70;;
43650;SDS011;29247;50.944;5.382;2022-07-23T04:06:44;4.30;;;3.55;;
43650;SDS011;29247;50.944;5.382;2022-07-23T04:09:10;7.22;;;4.18;;
43650;SDS011;29247;50.944;5.382;2022-07-23T04:11:36;4.97;;;4.28;;
43650;SDS011;29247;50.944;5.382;2022-07-23T04:14:01;5.22;;;4.25;;
43650;SDS011;29247;50.944;5.382;2022-07-23T04:16:27;7.10;;;4.57;;
43650;SDS011;29247;50.944;5.382;2022-07-23T04:18:53;6.68;;;4.47;;
43650;SDS011;29247;50.944;5.382;2022-07-23T04:21:19;4.50;;;3.72;;
43650;SDS011;29247;50.944;5.382;2022-07-23T04:23:47;4.80;;;3.78;;
43650;SDS011;29247;50.944;5.382;2022-07-23T04:26:15;7.25;;;5.45;;
43650;SDS011;29247;50.944;5.382;2022-07-23T04:28:44;6.13;;;4.15;;
43650;SDS011;29247;50.944;5.382;2022-07-23T04:31:11;7.95;;;4.82;;
43650;SDS011;29247;50.944;5.382;2022-07-23T04:33:39;5.40;;;4.00;;
43650;SDS011;29247;50.944;5.382;2022-07-23T04:36:05;7.10;;;5.15;;
43650;SDS011;29247;50.944;5.382;2022-07-23T04:38:36;5.38;;;3.83;;
43650;SDS011;29247;50.944;5.382;2022-07-23T04:41:01;9.27;;;4.50;;
43650;SDS011;29247;50.944;5.382;2022-07-23T04:43:27;7.28;;;4.68;;
43650;SDS011;29247;50.944;5.382;2022-07-23T04:45:55;4.97;;;4.22;;
43650;SDS011;29247;50.944;5.382;2022-07-23T04:48:20;6.95;;;4.93;;
43650;SDS011;29247;50.944;5.382;2022-07-23T04:50:49;4.95;;;4.07;;
43650;SDS011;29247;50.944;5.382;2022-07-23T04:53:17;10.07;;;4.10;;
43650;SDS011;29247;50.944;5.382;2022-07-23T04:55:43;6.75;;;4.97;;
43650;SDS011;29247;50.944;5.382;2022-07-23T04:58:09;5.88;;;4.55;;
43650;SDS011;29247;50.944;5.382;2022-07-23T05:00:37;6.97;;;4.43;;
43650;SDS011;29247;50.944;5.382;2022-07-23T05:03:06;10.00;;;5.53;;
43650;SDS011;29247;50.944;5.382;2022-07-23T05:05:31;5.40;;;4.60;;
43650;SDS011;29247;50.944;5.382;2022-07-23T05:08:00;9.43;;;5.38;;
43650;SDS011;29247;50.944;5.382;2022-07-23T05:10:31;9.10;;;4.53;;
43650;SDS011;29247;50.944;5.382;2022-07-23T05:12:56;10.63;;;5.78;;
43650;SDS011;29247;50.944;5.382;2022-07-23T05:15:22;7.78;;;5.60;;
43650;SDS011;29247;50.944;5.382;2022-07-23T05:17:48;6.38;;;5.18;;
43650;SDS011;29247;50.944;5.382;2022-07-23T05:20:14;10.30;;;6.18;;
43650;SDS011;29247;50.944;5.382;2022-07-23T05:22:40;6.88;;;5.85;;
43650;SDS011;29247;50.944;5.382;2022-07-23T05:25:06;10.35;;;5.78;;
43650;SDS011;29247;50.944;5.382;2022-07-23T05:27:33;10.10;;;6.22;;
43650;SDS011;29247;50.944;5.382;2022-07-23T05:29:59;10.85;;;6.78;;
43650;SDS011;29247;50.944;5.382;2022-07-23T05:32:24;7.00;;;5.85;;
43650;SDS011;29247;50.944;5.382;2022-07-23T05:34:50;8.85;;;6.30;;
43650;SDS011;29247;50.944;5.382;2022-07-23T05:37:16;9.00;;;6.45;;
43650;SDS011;29247;50.944;5.382;2022-07-23T05:39:44;8.63;;;6.38;;
43650;SDS011;29247;50.944;5.382;2022-07-23T05:42:12;7.53;;;5.53;;
43650;SDS011;29247;50.944;5.382;2022-07-23T05:44:38;11.50;;;6.45;;
43650;SDS011;29247;50.944;5.382;2022-07-23T05:47:05;7.70;;;6.32;;
43650;SDS011;29247;50.944;5.382;2022-07-23T05:49:33;8.43;;;5.65;;
43650;SDS011;29247;50.944;5.382;2022-07-23T05:52:05;8.25;;;7.03;;
43650;SDS011;29247;50.944;5.382;2022-07-23T05:54:33;7.70;;;6.50;;
43650;SDS011;29247;50.944;5.382;2022-07-23T05:57:00;8.68;;;6.00;;
43650;SDS011;29247;50.944;5.382;2022-07-23T05:59:29;9.65;;;6.68;;
43650;SDS011;29247;50.944;5.382;2022-07-23T06:01:55;10.85;;;6.82;;
43650;SDS011;29247;50.944;5.382;2022-07-23T06:04:21;6.80;;;5.75;;
43650;SDS011;29247;50.944;5.382;2022-07-23T06:06:47;8.57;;;6.15;;
43650;SDS011;29247;50.944;5.382;2022-07-23T06:09:12;8.55;;;6.32;;
43650;SDS011;29247;50.944;5.382;2022-07-23T06:11:38;10.27;;;6.22;;
43650;SDS011;29247;50.944;5.382;2022-07-23T06:14:05;10.13;;;6.80;;
43650;SDS011;29247;50.944;5.382;2022-07-23T06:16:31;7.18;;;6.05;;
43650;SDS011;29247;50.944;5.382;2022-07-23T06:18:57;8.93;;;6.47;;
43650;SDS011;29247;50.944;5.382;2022-07-23T06:21:23;9.02;;;6.35;;
43650;SDS011;29247;50.944;5.382;2022-07-23T06:23:48;8.77;;;6.20;;
43650;SDS011;29247;50.944;5.382;2022-07-23T06:26:16;9.73;;;7.35;;
43650;SDS011;29247;50.944;5.382;2022-07-23T06:28:44;9.30;;;7.05;;
43650;SDS011;29247;50.944;5.382;2022-07-23T06:31:12;10.50;;;7.03;;
43650;SDS011;29247;50.944;5.382;2022-07-23T06:33:40;9.13;;;6.63;;
43650;SDS011;29247;50.944;5.382;2022-07-23T06:36:06;9.68;;;6.75;;
43650;SDS011;29247;50.944;5.382;2022-07-23T06:38:31;9.18;;;7.22;;
43650;SDS011;29247;50.944;5.382;2022-07-23T06:41:02;10.10;;;7.40;;
43650;SDS011;29247;50.944;5.382;2022-07-23T06:43:29;9.48;;;7.20;;
43650;SDS011;29247;50.944;5.382;2022-07-23T06:45:56;8.48;;;6.82;;
43650;SDS011;29247;50.944;5.382;2022-07-23T06:48:21;10.10;;;6.57;;
43650;SDS011;29247;50.944;5.382;2022-07-23T06:50:47;10.65;;;7.57;;
43650;SDS011;29247;50.944;5.382;2022-07-23T06:53:13;10.32;;;7.32;;
43650;SDS011;29247;50.944;5.382;2022-07-23T06:55:39;9.63;;;7.55;;
43650;SDS011;29247;50.944;5.382;2022-07-23T06:58:05;9.50;;;7.28;;
43650;SDS011;29247;50.944;5.382;2022-07-23T07:00:31;13.63;;;7.60;;
43650;SDS011;29247;50.944;5.382;2022-07-23T07:03:01;10.55;;;7.55;;
43650;SDS011;29247;50.944;5.382;2022-07-23T07:07:55;9.95;;;7.07;;
43650;SDS011;29247;50.944;5.382;2022-07-23T07:10:20;12.05;;;7.47;;
43650;SDS011;29247;50.944;5.382;2022-07-23T07:12:46;12.80;;;8.13;;
43650;SDS011;29247;50.944;5.382;2022-07-23T07:15:16;11.13;;;7.35;;
43650;SDS011;29247;50.944;5.382;2022-07-23T07:17:42;10.27;;;7.03;;
43650;SDS011;29247;50.944;5.382;2022-07-23T07:20:08;11.88;;;6.57;;
43650;SDS011;29247;50.944;5.382;2022-07-23T07:22:37;12.45;;;7.28;;
43650;SDS011;29247;50.944;5.382;2022-07-23T07:25:04;11.80;;;6.70;;
43650;SDS011;29247;50.944;5.382;2022-07-23T07:27:30;8.57;;;6.38;;
43650;SDS011;29247;50.944;5.382;2022-07-23T07:29:56;9.60;;;5.65;;
43650;SDS011;29247;50.944;5.382;2022-07-23T07:32:24;10.38;;;5.82;;
43650;SDS011;29247;50.944;5.382;2022-07-23T07:34:52;9.52;;;5.88;;
43650;SDS011;29247;50.944;5.382;2022-07-23T07:37:20;7.93;;;6.25;;
43650;SDS011;29247;50.944;5.382;2022-07-23T07:39:46;7.05;;;5.45;;
43650;SDS011;29247;50.944;5.382;2022-07-23T07:42:12;8.73;;;6.95;;
43650;SDS011;29247;50.944;5.382;2022-07-23T07:44:37;8.10;;;5.60;;
43650;SDS011;29247;50.944;5.382;2022-07-23T07:47:07;6.30;;;4.97;;
43650;SDS011;29247;50.944;5.382;2022-07-23T07:49:36;8.52;;;5.55;;
43650;SDS011;29247;50.944;5.382;2022-07-23T07:52:04;5.95;;;5.03;;
43650;SDS011;29247;50.944;5.382;2022-07-23T07:54:32;6.20;;;4.55;;
43650;SDS011;29247;50.944;5.382;2022-07-23T07:56:58;5.90;;;4.28;;
43650;SDS011;29247;50.944;5.382;2022-07-23T07:59:23;7.32;;;4.57;;
43650;SDS011;29247;50.944;5.382;2022-07-23T08:01:51;6.40;;;4.40;;
43650;SDS011;29247;50.944;5.382;2022-07-23T08:04:19;5.97;;;4.60;;
43650;SDS011;29247;50.944;5.382;2022-07-23T08:06:48;5.60;;;4.10;;
43650;SDS011;29247;50.944;5.382;2022-07-23T08:09:14;6.47;;;4.53;;
43650;SDS011;29247;50.944;5.382;2022-07-23T08:11:39;6.35;;;4.28;;
43650;SDS011;29247;50.944;5.382;2022-07-23T08:14:05;8.30;;;4.93;;
43650;SDS011;29247;50.944;5.382;2022-07-23T08:16:34;7.60;;;4.75;;
43650;SDS011;29247;50.944;5.382;2022-07-23T08:19:00;7.90;;;4.70;;
43650;SDS011;29247;50.944;5.382;2022-07-23T08:21:25;7.32;;;4.53;;
43650;SDS011;29247;50.944;5.382;2022-07-23T08:23:51;7.05;;;4.70;;
43650;SDS011;29247;50.944;5.382;2022-07-23T08:26:21;9.45;;;5.45;;
43650;SDS011;29247;50.944;5.382;2022-07-23T08:28:47;9.80;;;5.63;;
43650;SDS011;29247;50.944;5.382;2022-07-23T08:31:15;6.90;;;5.25;;
43650;SDS011;29247;50.944;5.382;2022-07-23T08:33:42;6.63;;;4.60;;
43650;SDS011;29247;50.944;5.382;2022-07-23T08:36:08;7.25;;;5.32;;
43650;SDS011;29247;50.944;5.382;2022-07-23T08:38:34;7.78;;;4.78;;
43650;SDS011;29247;50.944;5.382;2022-07-23T08:41:00;7.85;;;5.65;;
43650;SDS011;29247;50.944;5.382;2022-07-23T08:43:31;8.27;;;5.07;;
43650;SDS011;29247;50.944;5.382;2022-07-23T08:45:59;8.27;;;5.18;;
43650;SDS011;29247;50.944;5.382;2022-07-23T08:48:26;8.60;;;5.40;;
43650;SDS011;29247;50.944;5.382;2022-07-23T08:50:56;8.00;;;5.25;;
43650;SDS011;29247;50.944;5.382;2022-07-23T08:55:51;6.25;;;4.75;;
43650;SDS011;29247;50.944;5.382;2022-07-23T08:58:21;7.40;;;4.60;;
43650;SDS011;29247;50.944;5.382;2022-07-23T09:00:50;8.45;;;4.55;;
43650;SDS011;29247;50.944;5.382;2022-07-23T09:05:51;6.32;;;4.28;;
43650;SDS011;29247;50.944;5.382;2022-07-23T09:08:22;6.30;;;4.38;;
43650;SDS011;29247;50.944;5.382;2022-07-23T09:13:38;6.65;;;4.82;;
43650;SDS011;29247;50.944;5.382;2022-07-23T09:21:25;6.25;;;3.83;;
43650;SDS011;29247;50.944;5.382;2022-07-23T09:24:12;9.35;;;4.60;;
43650;SDS011;29247;50.944;5.382;2022-07-23T09:26:47;4.93;;;4.05;;
43650;SDS011;29247;50.944;5.382;2022-07-23T09:29:21;7.88;;;4.00;;
43650;SDS011;29247;50.944;5.382;2022-07-23T09:31:52;8.15;;;3.65;;
43650;SDS011;29247;50.944;5.382;2022-07-23T09:34:26;4.30;;;3.42;;
43650;SDS011;29247;50.944;5.382;2022-07-23T09:39:30;7.38;;;4.22;;
43650;SDS011;29247;50.944;5.382;2022-07-23T09:41:58;9.27;;;4.15;;
43650;SDS011;29247;50.944;5.382;2022-07-23T09:44:45;6.35;;;3.53;;
43650;SDS011;29247;50.944;5.382;2022-07-23T09:47:15;6.32;;;3.92;;
43650;SDS011;29247;50.944;5.382;2022-07-23T09:49:57;6.30;;;3.20;;
43650;SDS011;29247;50.944;5.382;2022-07-23T09:52:32;4.38;;;3.28;;
43650;SDS011;29247;50.944;5.382;2022-07-23T09:55:01;5.63;;;3.00;;
43650;SDS011;29247;50.944;5.382;2022-07-23T09:57:33;6.53;;;3.17;;
43650;SDS011;29247;50.944;5.382;2022-07-23T10:00:04;6.85;;;3.05;;
43650;SDS011;29247;50.944;5.382;2022-07-23T10:02:35;5.65;;;3.35;;
43650;SDS011;29247;50.944;5.382;2022-07-23T10:05:01;3.88;;;2.90;;
43650;SDS011;29247;50.944;5.382;2022-07-23T10:07:35;3.53;;;2.53;;
43650;SDS011;29247;50.944;5.382;2022-07-23T10:10:08;4.85;;;2.72;;
43650;SDS011;29247;50.944;5.382;2022-07-23T10:12:37;6.35;;;3.35;;
43650;SDS011;29247;50.944;5.382;2022-07-23T10:15:06;5.68;;;3.85;;
43650;SDS011;29247;50.944;5.382;2022-07-23T10:17:35;3.53;;;3.15;;
43650;SDS011;29247;50.944;5.382;2022-07-23T10:20:03;5.13;;;3.15;;
43650;SDS011;29247;50.944;5.382;2022-07-23T10:22:37;6.47;;;2.53;;
43650;SDS011;29247;50.944;5.382;2022-07-23T10:36:07;4.20;;;3.10;;
43650;SDS011;29247;50.944;5.382;2022-07-23T10:38:48;2.97;;;2.28;;
43650;SDS011;29247;50.944;5.382;2022-07-23T10:41:34;3.15;;;2.45;;
43650;SDS011;29247;50.944;5.382;2022-07-23T10:44:13;3.22;;;2.13;;
43650;SDS011;29247;50.944;5.382;2022-07-23T10:49:41;1.52;;;1.42;;
43650;SDS011;29247;50.944;5.382;2022-07-23T10:54:39;2.15;;;1.35;;
43650;SDS011;29247;50.944;5.382;2022-07-23T10:57:08;2.47;;;2.00;;
43650;SDS011;29247;50.944;5.382;2022-07-23T11:02:37;2.20;;;1.83;;
43650;SDS011;29247;50.944;5.382;2022-07-23T11:05:04;3.15;;;1.77;;
43650;SDS011;29247;50.944;5.382;2022-07-23T11:07:34;5.13;;;1.80;;
43650;SDS011;29247;50.944;5.382;2022-07-23T11:10:03;3.13;;;1.73;;
43650;SDS011;29247;50.944;5.382;2022-07-23T11:20:12;2.72;;;1.20;;
43650;SDS011;29247;50.944;5.382;2022-07-23T11:25:09;3.05;;;1.55;;
43650;SDS011;29247;50.944;5.382;2022-07-23T11:28:07;3.45;;;2.33;;
43650;SDS011;29247;50.944;5.382;2022-07-23T11:30:49;3.47;;;2.20;;
43650;SDS011;29247;50.944;5.382;2022-07-23T11:33:16;2.90;;;1.75;;
43650;SDS011;29247;50.944;5.382;2022-07-23T11:35:44;3.35;;;2.15;;
43650;SDS011;29247;50.944;5.382;2022-07-23T11:38:14;3.10;;;1.55;;
43650;SDS011;29247;50.944;5.382;2022-07-23T11:40:55;2.47;;;1.42;;
43650;SDS011;29247;50.944;5.382;2022-07-23T11:43:24;2.35;;;1.75;;
43650;SDS011;29247;50.944;5.382;2022-07-23T11:45:52;1.52;;;1.30;;
43650;SDS011;29247;50.944;5.382;2022-07-23T11:48:25;2.88;;;1.67;;
43650;SDS011;29247;50.944;5.382;2022-07-23T11:50:53;3.28;;;1.40;;
43650;SDS011;29247;50.944;5.382;2022-07-23T11:53:24;1.50;;;1.40;;
43650;SDS011;29247;50.944;5.382;2022-07-23T11:55:52;2.40;;;1.60;;
43650;SDS011;29247;50.944;5.382;2022-07-23T11:58:20;2.05;;;1.85;;
43650;SDS011;29247;50.944;5.382;2022-07-23T12:00:51;2.28;;;1.60;;
43650;SDS011;29247;50.944;5.382;2022-07-23T12:03:19;3.47;;;1.80;;
43650;SDS011;29247;50.944;5.382;2022-07-23T12:05:45;2.80;;;1.38;;
43650;SDS011;29247;50.944;5.382;2022-07-23T12:08:14;2.13;;;1.77;;
43650;SDS011;29247;50.944;5.382;2022-07-23T12:10:43;2.90;;;1.73;;
43650;SDS011;29247;50.944;5.382;2022-07-23T12:13:12;4.63;;;1.55;;
43650;SDS011;29247;50.944;5.382;2022-07-23T12:15:54;2.92;;;1.77;;
43650;SDS011;29247;50.944;5.382;2022-07-23T12:18:25;2.15;;;1.25;;
43650;SDS011;29247;50.944;5.382;2022-07-23T12:20:53;2.67;;;1.30;;
43650;SDS011;29247;50.944;5.382;2022-07-23T12:23:27;1.45;;;1.10;;
43650;SDS011;29247;50.944;5.382;2022-07-23T12:25:53;1.30;;;1.20;;
43650;SDS011;29247;50.944;5.382;2022-07-23T12:28:21;2.38;;;1.55;;
43650;SDS011;29247;50.944;5.382;2022-07-23T12:30:53;2.08;;;1.10;;
43650;SDS011;29247;50.944;5.382;2022-07-23T12:36:05;1.58;;;1.25;;
43650;SDS011;29247;50.944;5.382;2022-07-23T12:38:36;1.67;;;1.33;;
43650;SDS011;29247;50.944;5.382;2022-07-23T12:41:11;1.60;;;1.38;;
43650;SDS011;29247;50.944;5.382;2022-07-23T12:43:37;2.60;;;1.48;;
43650;SDS011;29247;50.944;5.382;2022-07-23T12:46:06;3.40;;;1.17;;
43650;SDS011;29247;50.944;5.382;2022-07-23T12:48:50;1.90;;;1.52;;
43650;SDS011;29247;50.944;5.382;2022-07-23T12:51:30;6.50;;;1.38;;
43650;SDS011;29247;50.944;5.382;2022-07-23T12:54:09;1.33;;;1.23;;
43650;SDS011;29247;50.944;5.382;2022-07-23T12:56:39;3.30;;;1.30;;
43650;SDS011;29247;50.944;5.382;2022-07-23T12:59:10;3.40;;;1.45;;
43650;SDS011;29247;50.944;5.382;2022-07-23T13:01:39;1.30;;;1.20;;
43650;SDS011;29247;50.944;5.382;2022-07-23T13:04:09;2.88;;;1.50;;
43650;SDS011;29247;50.944;5.382;2022-07-23T13:06:40;1.40;;;1.30;;
43650;SDS011;29247;50.944;5.382;2022-07-23T13:09:12;2.22;;;1.40;;
43650;SDS011;29247;50.944;5.382;2022-07-23T13:11:46;3.35;;;1.60;;
43650;SDS011;29247;50.944;5.382;2022-07-23T13:14:13;1.60;;;1.27;;
43650;SDS011;29247;50.944;5.382;2022-07-23T13:16:43;2.63;;;1.40;;
43650;SDS011;29247;50.944;5.382;2022-07-23T13:19:09;3.20;;;1.33;;
43650;SDS011;29247;50.944;5.382;2022-07-23T13:21:40;3.05;;;1.63;;
43650;SDS011;29247;50.944;5.382;2022-07-23T13:24:09;1.83;;;1.58;;
43650;SDS011;29247;50.944;5.382;2022-07-23T13:26:40;1.52;;;1.40;;
43650;SDS011;29247;50.944;5.382;2022-07-23T13:29:06;2.35;;;1.55;;
43650;SDS011;29247;50.944;5.382;2022-07-23T13:31:33;1.65;;;1.30;;
43650;SDS011;29247;50.944;5.382;2022-07-23T13:34:01;1.80;;;1.58;;
43650;SDS011;29247;50.944;5.382;2022-07-23T13:36:29;2.00;;;1.70;;
43650;SDS011;29247;50.944;5.382;2022-07-23T13:38:57;1.90;;;1.40;;
43650;SDS011;29247;50.944;5.382;2022-07-23T13:41:23;1.95;;;1.30;;
43650;SDS011;29247;50.944;5.382;2022-07-23T13:43:51;2.72;;;1.27;;
43650;SDS011;29247;50.944;5.382;2022-07-23T13:46:20;2.17;;;1.98;;
43650;SDS011;29247;50.944;5.382;2022-07-23T13:48:48;1.65;;;1.40;;
43650;SDS011;29247;50.944;5.382;2022-07-23T13:51:14;1.52;;;1.40;;
43650;SDS011;29247;50.944;5.382;2022-07-23T13:53:42;3.13;;;1.65;;
43650;SDS011;29247;50.944;5.382;2022-07-23T13:56:10;2.35;;;2.10;;
43650;SDS011;29247;50.944;5.382;2022-07-23T13:58:40;2.93;;;1.80;;
43650;SDS011;29247;50.944;5.382;2022-07-23T14:01:06;1.83;;;1.60;;
43650;SDS011;29247;50.944;5.382;2022-07-23T14:03:32;3.42;;;2.17;;
43650;SDS011;29247;50.944;5.382;2022-07-23T14:06:00;3.28;;;2.20;;
43650;SDS011;29247;50.944;5.382;2022-07-23T14:08:26;3.13;;;1.67;;
43650;SDS011;29247;50.944;5.382;2022-07-23T14:10:55;3.22;;;1.98;;
43650;SDS011;29247;50.944;5.382;2022-07-23T14:13:21;3.97;;;2.05;;
43650;SDS011;29247;50.944;5.382;2022-07-23T14:15:47;3.28;;;1.98;;
43650;SDS011;29247;50.944;5.382;2022-07-23T14:18:13;4.38;;;2.08;;
43650;SDS011;29247;50.944;5.382;2022-07-23T14:20:38;6.30;;;1.88;;
43650;SDS011;29247;50.944;5.382;2022-07-23T14:23:04;1.88;;;1.42;;
43650;SDS011;29247;50.944;5.382;2022-07-23T14:25:29;2.30;;;1.70;;
43650;SDS011;29247;50.944;5.382;2022-07-23T14:27:55;2.33;;;1.70;;
43650;SDS011;29247;50.944;5.382;2022-07-23T14:30:24;2.28;;;1.67;;
43650;SDS011;29247;50.944;5.382;2022-07-23T14:32:50;2.20;;;1.65;;
43650;SDS011;29247;50.944;5.382;2022-07-23T14:35:16;3.92;;;1.67;;
43650;SDS011;29247;50.944;5.382;2022-07-23T14:37:44;3.78;;;2.13;;
43650;SDS011;29247;50.944;5.382;2022-07-23T14:40:09;3.45;;;2.03;;
43650;SDS011;29247;50.944;5.382;2022-07-23T14:42:40;1.75;;;1.65;;
43650;SDS011;29247;50.944;5.382;2022-07-23T14:45:06;2.92;;;1.98;;
43650;SDS011;29247;50.944;5.382;2022-07-23T14:47:31;2.55;;;2.08;;
43650;SDS011;29247;50.944;5.382;2022-07-23T14:49:57;1.75;;;1.65;;
43650;SDS011;29247;50.944;5.382;2022-07-23T14:52:23;3.40;;;2.05;;
43650;SDS011;29247;50.944;5.382;2022-07-23T14:54:49;3.03;;;1.58;;
43650;SDS011;29247;50.944;5.382;2022-07-23T14:57:17;3.65;;;2.22;;
43650;SDS011;29247;50.944;5.382;2022-07-23T14:59:45;3.78;;;1.92;;
43650;SDS011;29247;50.944;5.382;2022-07-23T15:02:14;5.50;;;1.98;;
43650;SDS011;29247;50.944;5.382;2022-07-23T15:07:09;3.70;;;1.85;;
43650;SDS011;29247;50.944;5.382;2022-07-23T15:09:37;2.92;;;2.33;;
43650;SDS011;29247;50.944;5.382;2022-07-23T15:12:03;2.13;;;1.88;;
43650;SDS011;29247;50.944;5.382;2022-07-23T15:14:29;2.67;;;1.83;;
43650;SDS011;29247;50.944;5.382;2022-07-23T15:16:55;2.38;;;2.17;;
43650;SDS011;29247;50.944;5.382;2022-07-23T15:19:23;2.55;;;2.10;;
43650;SDS011;29247;50.944;5.382;2022-07-23T15:21:54;2.23;;;1.80;;
43650;SDS011;29247;50.944;5.382;2022-07-23T15:24:20;3.03;;;1.80;;
43650;SDS011;29247;50.944;5.382;2022-07-23T15:26:46;2.38;;;1.90;;
43650;SDS011;29247;50.944;5.382;2022-07-23T15:29:11;2.58;;;2.28;;
43650;SDS011;29247;50.944;5.382;2022-07-23T15:31:40;3.13;;;1.90;;
43650;SDS011;29247;50.944;5.382;2022-07-23T15:34:08;3.58;;;2.05;;
43650;SDS011;29247;50.944;5.382;2022-07-23T15:36:34;2.95;;;2.10;;
43650;SDS011;29247;50.944;5.382;2022-07-23T15:38:59;2.47;;;1.83;;
43650;SDS011;29247;50.944;5.382;2022-07-23T15:41:25;2.63;;;2.28;;
43650;SDS011;29247;50.944;5.382;2022-07-23T15:43:51;4.40;;;2.08;;
43650;SDS011;29247;50.944;5.382;2022-07-23T15:46:19;2.67;;;2.20;;